Roxboro, North Carolina
Current Conditions -  °F | °C
As of 10:15 PM on Tuesday 25 Nov 2014 (Local Time) from KTDF Reporting Station
Moderate Rain Moderate Rain  
Wind Chill: 46°   Ceiling: 8000
Heat Index: 46°   Visibility: 7mi
Dew Point: 45°   Wind: 0mph
Humidity: 93%   Direction: NA
Pressure: 30.12"   Gusts: NA
Location:  36.4°N, 78.98°W
Report Text: KTDF 260315Z AUTO 00000KT 7SM RA SCT031 SCT041 OVC080 08/07 A3012 RMK AO2 LTG DSNT S P0001
Loading
Personal Weather Stations






























Interactive Weather Map New forecast layout! Learn more

10-Day Weather Forecast

Advertisements
Track Severe Weather on mobile